sensor_id;sensor_type;location;lat;lon;timestamp;temperature;humidity
25933;DHT22;13731;51.166;4.474;2023-02-19T00:01:22;11.80;1.00
25933;DHT22;13731;51.166;4.474;2023-02-19T00:03:53;11.80;1.00
25933;DHT22;13731;51.166;4.474;2023-02-19T00:06:21;11.70;1.00
25933;DHT22;13731;51.166;4.474;2023-02-19T00:08:47;11.80;1.00
25933;DHT22;13731;51.166;4.474;2023-02-19T00:11:16;11.70;1.00
25933;DHT22;13731;51.166;4.474;2023-02-19T00:13:44;11.60;81.10
25933;DHT22;13731;51.166;4.474;2023-02-19T00:16:25;11.60;37.40
25933;DHT22;13731;51.166;4.474;2023-02-19T00:18:52;11.60;99.90
25933;DHT22;13731;51.166;4.474;2023-02-19T00:21:18;11.50;99.90
25933;DHT22;13731;51.166;4.474;2023-02-19T00:23:55;11.60;61.60
25933;DHT22;13731;51.166;4.474;2023-02-19T00:26:22;11.60;1.00
25933;DHT22;13731;51.166;4.474;2023-02-19T00:28:49;11.60;26.60
25933;DHT22;13731;51.166;4.474;2023-02-19T00:31:27;11.50;75.70
25933;DHT22;13731;51.166;4.474;2023-02-19T00:33:56;11.50;27.30
25933;DHT22;13731;51.166;4.474;2023-02-19T00:36:23;11.50;1.00
25933;DHT22;13731;51.166;4.474;2023-02-19T00:38:50;11.50;1.00
25933;DHT22;13731;51.166;4.474;2023-02-19T00:41:17;11.50;1.00
25933;DHT22;13731;51.166;4.474;2023-02-19T00:46:13;11.60;1.00
25933;DHT22;13731;51.166;4.474;2023-02-19T00:48:39;11.60;1.00
25933;DHT22;13731;51.166;4.474;2023-02-19T00:51:05;11.50;1.00
25933;DHT22;13731;51.166;4.474;2023-02-19T00:53:31;11.50;5.20
25933;DHT22;13731;51.166;4.474;2023-02-19T00:55:57;11.60;1.00
25933;DHT22;13731;51.166;4.474;2023-02-19T00:58:23;11.60;1.00
25933;DHT22;13731;51.166;4.474;2023-02-19T01:00:49;11.40;59.40
25933;DHT22;13731;51.166;4.474;2023-02-19T01:03:15;11.40;99.90
25933;DHT22;13731;51.166;4.474;2023-02-19T01:05:41;11.40;99.90
25933;DHT22;13731;51.166;4.474;2023-02-19T01:08:07;11.40;98.30
25933;DHT22;13731;51.166;4.474;2023-02-19T01:10:32;11.40;39.40
25933;DHT22;13731;51.166;4.474;2023-02-19T01:12:58;11.40;39.50
25933;DHT22;13731;51.166;4.474;2023-02-19T01:15:24;11.40;44.90
25933;DHT22;13731;51.166;4.474;2023-02-19T01:17:51;11.40;58.60
25933;DHT22;13731;51.166;4.474;2023-02-19T01:20:16;11.50;1.00
25933;DHT22;13731;51.166;4.474;2023-02-19T01:22:42;11.50;1.00
25933;DHT22;13731;51.166;4.474;2023-02-19T01:25:08;11.50;1.00
25933;DHT22;13731;51.166;4.474;2023-02-19T01:27:34;11.60;99.90
25933;DHT22;13731;51.166;4.474;2023-02-19T01:30:00;11.70;99.90
25933;DHT22;13731;51.166;4.474;2023-02-19T01:32:26;11.40;1.00
25933;DHT22;13731;51.166;4.474;2023-02-19T01:34:52;11.30;23.00
25933;DHT22;13731;51.166;4.474;2023-02-19T01:37:18;11.40;1.00
25933;DHT22;13731;51.166;4.474;2023-02-19T01:39:44;11.30;3.60
25933;DHT22;13731;51.166;4.474;2023-02-19T01:42:13;11.30;99.90
25933;DHT22;13731;51.166;4.474;2023-02-19T01:47:12;11.20;99.90
25933;DHT22;13731;51.166;4.474;2023-02-19T01:49:46;11.30;97.70
25933;DHT22;13731;51.166;4.474;2023-02-19T01:52:31;11.20;99.90
25933;DHT22;13731;51.166;4.474;2023-02-19T01:55:01;11.30;15.80
25933;DHT22;13731;51.166;4.474;2023-02-19T01:57:32;11.20;1.00
25933;DHT22;13731;51.166;4.474;2023-02-19T02:00:07;11.30;1.00
25933;DHT22;13731;51.166;4.474;2023-02-19T02:02:41;11.40;99.90
25933;DHT22;13731;51.166;4.474;2023-02-19T02:05:14;11.20;1.00
25933;DHT22;13731;51.166;4.474;2023-02-19T02:07:42;11.30;1.00
25933;DHT22;13731;51.166;4.474;2023-02-19T02:10:27;11.20;1.00
25933;DHT22;13731;51.166;4.474;2023-02-19T02:12:56;11.20;1.00
25933;DHT22;13731;51.166;4.474;2023-02-19T02:15:23;11.20;1.00
25933;DHT22;13731;51.166;4.474;2023-02-19T02:17:59;11.20;1.00
25933;DHT22;13731;51.166;4.474;2023-02-19T02:25:58;11.30;99.90
25933;DHT22;13731;51.166;4.474;2023-02-19T02:31:42;11.20;99.90
25933;DHT22;13731;51.166;4.474;2023-02-19T02:34:16;11.20;99.90
25933;DHT22;13731;51.166;4.474;2023-02-19T02:36:46;11.30;99.90
25933;DHT22;13731;51.166;4.474;2023-02-19T02:39:17;11.20;99.90
25933;DHT22;13731;51.166;4.474;2023-02-19T02:41:49;11.20;99.90
25933;DHT22;13731;51.166;4.474;2023-02-19T02:44:40;11.10;99.90
25933;DHT22;13731;51.166;4.474;2023-02-19T02:47:08;11.20;99.90
25933;DHT22;13731;51.166;4.474;2023-02-19T02:49:55;11.10;99.90
25933;DHT22;13731;51.166;4.474;2023-02-19T02:52:35;11.00;99.90
25933;DHT22;13731;51.166;4.474;2023-02-19T02:55:23;11.10;99.90
25933;DHT22;13731;51.166;4.474;2023-02-19T02:57:49;11.10;1.00
25933;DHT22;13731;51.166;4.474;2023-02-19T03:00:15;11.00;1.00
25933;DHT22;13731;51.166;4.474;2023-02-19T03:02:42;11.20;1.00
25933;DHT22;13731;51.166;4.474;2023-02-19T03:05:15;11.10;1.00
25933;DHT22;13731;51.166;4.474;2023-02-19T03:10:42;11.10;99.90
25933;DHT22;13731;51.166;4.474;2023-02-19T03:13:19;11.10;99.90
25933;DHT22;13731;51.166;4.474;2023-02-19T03:16:11;11.20;99.90
25933;DHT22;13731;51.166;4.474;2023-02-19T03:18:59;11.20;99.90
25933;DHT22;13731;51.166;4.474;2023-02-19T03:21:49;11.40;1.00
25933;DHT22;13731;51.166;4.474;2023-02-19T03:24:20;11.30;99.90
25933;DHT22;13731;51.166;4.474;2023-02-19T03:27:06;11.20;99.90
25933;DHT22;13731;51.166;4.474;2023-02-19T03:29:40;11.30;1.00
25933;DHT22;13731;51.166;4.474;2023-02-19T03:32:17;11.30;1.00
25933;DHT22;13731;51.166;4.474;2023-02-19T03:37:46;11.40;1.00
25933;DHT22;13731;51.166;4.474;2023-02-19T03:40:15;11.30;1.00
25933;DHT22;13731;51.166;4.474;2023-02-19T03:42:43;11.30;1.00
25933;DHT22;13731;51.166;4.474;2023-02-19T03:48:24;11.30;99.90
25933;DHT22;13731;51.166;4.474;2023-02-19T03:51:19;11.20;1.00
25933;DHT22;13731;51.166;4.474;2023-02-19T03:57:03;11.30;99.90
25933;DHT22;13731;51.166;4.474;2023-02-19T04:02:41;11.10;1.00
25933;DHT22;13731;51.166;4.474;2023-02-19T04:05:18;11.20;1.00
25933;DHT22;13731;51.166;4.474;2023-02-19T04:07:49;11.10;1.00
25933;DHT22;13731;51.166;4.474;2023-02-19T04:10:20;11.20;99.90
25933;DHT22;13731;51.166;4.474;2023-02-19T04:13:03;11.40;1.00
25933;DHT22;13731;51.166;4.474;2023-02-19T04:15:33;11.30;1.00
25933;DHT22;13731;51.166;4.474;2023-02-19T04:18:04;11.30;1.00
25933;DHT22;13731;51.166;4.474;2023-02-19T04:20:38;11.30;1.00
25933;DHT22;13731;51.166;4.474;2023-02-19T04:23:04;11.30;1.00
25933;DHT22;13731;51.166;4.474;2023-02-19T04:25:31;11.30;1.00
25933;DHT22;13731;51.166;4.474;2023-02-19T04:27:58;11.30;99.90
25933;DHT22;13731;51.166;4.474;2023-02-19T04:30:26;11.30;99.90
25933;DHT22;13731;51.166;4.474;2023-02-19T04:32:51;11.60;1.00
25933;DHT22;13731;51.166;4.474;2023-02-19T04:35:17;11.60;1.00
25933;DHT22;13731;51.166;4.474;2023-02-19T04:37:43;11.50;1.00
25933;DHT22;13731;51.166;4.474;2023-02-19T04:40:09;11.40;1.00
25933;DHT22;13731;51.166;4.474;2023-02-19T04:42:35;11.40;1.00
25933;DHT22;13731;51.166;4.474;2023-02-19T04:45:01;11.50;1.00
25933;DHT22;13731;51.166;4.474;2023-02-19T04:47:27;11.70;99.90
25933;DHT22;13731;51.166;4.474;2023-02-19T04:49:53;11.60;99.90
25933;DHT22;13731;51.166;4.474;2023-02-19T04:52:19;11.60;99.90
25933;DHT22;13731;51.166;4.474;2023-02-19T04:54:45;11.50;99.90
25933;DHT22;13731;51.166;4.474;2023-02-19T04:57:11;11.30;8.40
25933;DHT22;13731;51.166;4.474;2023-02-19T04:59:37;11.10;99.90
25933;DHT22;13731;51.166;4.474;2023-02-19T05:02:02;11.20;99.90
25933;DHT22;13731;51.166;4.474;2023-02-19T05:04:28;11.40;1.00
25933;DHT22;13731;51.166;4.474;2023-02-19T05:06:55;11.50;99.90
25933;DHT22;13731;51.166;4.474;2023-02-19T05:09:20;11.40;1.00
25933;DHT22;13731;51.166;4.474;2023-02-19T05:11:46;11.40;1.00
25933;DHT22;13731;51.166;4.474;2023-02-19T05:14:12;11.50;99.90
25933;DHT22;13731;51.166;4.474;2023-02-19T05:16:39;11.50;99.90
25933;DHT22;13731;51.166;4.474;2023-02-19T05:19:04;11.50;99.90
25933;DHT22;13731;51.166;4.474;2023-02-19T05:21:30;11.50;99.90
25933;DHT22;13731;51.166;4.474;2023-02-19T05:23:56;11.40;99.90
25933;DHT22;13731;51.166;4.474;2023-02-19T05:26:22;11.30;1.00
25933;DHT22;13731;51.166;4.474;2023-02-19T05:28:50;11.20;1.00
25933;DHT22;13731;51.166;4.474;2023-02-19T05:31:17;11.20;34.90
25933;DHT22;13731;51.166;4.474;2023-02-19T05:33:43;11.20;8.80
25933;DHT22;13731;51.166;4.474;2023-02-19T05:36:12;11.30;1.00
25933;DHT22;13731;51.166;4.474;2023-02-19T05:38:39;11.30;1.00
25933;DHT22;13731;51.166;4.474;2023-02-19T05:41:17;11.10;6.80
25933;DHT22;13731;51.166;4.474;2023-02-19T05:43:45;11.10;1.00
25933;DHT22;13731;51.166;4.474;2023-02-19T05:46:13;11.20;1.00
25933;DHT22;13731;51.166;4.474;2023-02-19T05:48:39;11.30;99.90
25933;DHT22;13731;51.166;4.474;2023-02-19T05:51:08;11.20;1.00
25933;DHT22;13731;51.166;4.474;2023-02-19T05:53:35;11.10;1.00
25933;DHT22;13731;51.166;4.474;2023-02-19T05:56:01;11.10;1.00
25933;DHT22;13731;51.166;4.474;2023-02-19T05:58:27;11.30;99.90
25933;DHT22;13731;51.166;4.474;2023-02-19T06:00:54;11.20;99.90
25933;DHT22;13731;51.166;4.474;2023-02-19T06:03:20;11.20;99.90
25933;DHT22;13731;51.166;4.474;2023-02-19T06:05:46;11.20;99.90
25933;DHT22;13731;51.166;4.474;2023-02-19T06:08:13;11.30;1.00
25933;DHT22;13731;51.166;4.474;2023-02-19T06:10:40;11.10;99.90
25933;DHT22;13731;51.166;4.474;2023-02-19T06:13:09;11.00;1.00
25933;DHT22;13731;51.166;4.474;2023-02-19T06:15:36;10.90;1.00
25933;DHT22;13731;51.166;4.474;2023-02-19T06:18:03;10.80;1.00
25933;DHT22;13731;51.166;4.474;2023-02-19T06:20:29;10.80;1.00
25933;DHT22;13731;51.166;4.474;2023-02-19T06:22:55;10.80;1.00
25933;DHT22;13731;51.166;4.474;2023-02-19T06:25:21;10.90;1.00
25933;DHT22;13731;51.166;4.474;2023-02-19T06:27:47;10.90;1.00
25933;DHT22;13731;51.166;4.474;2023-02-19T06:30:13;10.80;1.00
25933;DHT22;13731;51.166;4.474;2023-02-19T06:32:39;10.90;99.90
25933;DHT22;13731;51.166;4.474;2023-02-19T06:35:05;11.00;99.90
25933;DHT22;13731;51.166;4.474;2023-02-19T06:37:30;10.90;99.90
25933;DHT22;13731;51.166;4.474;2023-02-19T06:39:56;10.80;1.00
25933;DHT22;13731;51.166;4.474;2023-02-19T06:42:22;10.80;1.00
25933;DHT22;13731;51.166;4.474;2023-02-19T06:44:48;10.80;1.00
25933;DHT22;13731;51.166;4.474;2023-02-19T06:47:14;10.70;1.00
25933;DHT22;13731;51.166;4.474;2023-02-19T06:49:40;10.70;1.00
25933;DHT22;13731;51.166;4.474;2023-02-19T06:52:06;10.80;1.00
25933;DHT22;13731;51.166;4.474;2023-02-19T06:54:32;10.90;99.90
25933;DHT22;13731;51.166;4.474;2023-02-19T06:57:00;10.80;1.00
25933;DHT22;13731;51.166;4.474;2023-02-19T06:59:26;10.80;99.90
25933;DHT22;13731;51.166;4.474;2023-02-19T07:01:52;10.80;1.00
25933;DHT22;13731;51.166;4.474;2023-02-19T07:04:18;10.70;1.00
25933;DHT22;13731;51.166;4.474;2023-02-19T07:06:44;10.60;99.90
25933;DHT22;13731;51.166;4.474;2023-02-19T07:09:10;10.60;99.90
25933;DHT22;13731;51.166;4.474;2023-02-19T07:11:38;10.60;99.90
25933;DHT22;13731;51.166;4.474;2023-02-19T07:14:06;10.60;99.90
25933;DHT22;13731;51.166;4.474;2023-02-19T07:16:33;10.70;99.90
25933;DHT22;13731;51.166;4.474;2023-02-19T07:18:59;10.70;99.90
25933;DHT22;13731;51.166;4.474;2023-02-19T07:21:26;10.90;1.00
25933;DHT22;13731;51.166;4.474;2023-02-19T07:23:53;11.20;99.90
25933;DHT22;13731;51.166;4.474;2023-02-19T07:26:20;11.20;99.90
25933;DHT22;13731;51.166;4.474;2023-02-19T07:28:48;11.20;1.00
25933;DHT22;13731;51.166;4.474;2023-02-19T07:31:16;11.10;99.90
25933;DHT22;13731;51.166;4.474;2023-02-19T07:33:43;11.10;99.90
25933;DHT22;13731;51.166;4.474;2023-02-19T07:36:09;11.20;72.60
25933;DHT22;13731;51.166;4.474;2023-02-19T07:38:36;11.20;1.00
25933;DHT22;13731;51.166;4.474;2023-02-19T07:41:03;11.20;76.30
25933;DHT22;13731;51.166;4.474;2023-02-19T07:43:32;11.10;99.90
25933;DHT22;13731;51.166;4.474;2023-02-19T07:46:05;11.30;1.00
25933;DHT22;13731;51.166;4.474;2023-02-19T07:48:32;11.30;1.00
25933;DHT22;13731;51.166;4.474;2023-02-19T07:51:00;11.40;1.00
25933;DHT22;13731;51.166;4.474;2023-02-19T07:53:27;11.40;99.90
25933;DHT22;13731;51.166;4.474;2023-02-19T07:55:53;11.30;1.00
25933;DHT22;13731;51.166;4.474;2023-02-19T07:58:19;11.20;1.00
25933;DHT22;13731;51.166;4.474;2023-02-19T08:00:44;11.30;1.00
25933;DHT22;13731;51.166;4.474;2023-02-19T08:03:11;11.10;99.90
25933;DHT22;13731;51.166;4.474;2023-02-19T08:05:38;11.20;92.00
25933;DHT22;13731;51.166;4.474;2023-02-19T08:08:13;11.50;99.90
25933;DHT22;13731;51.166;4.474;2023-02-19T08:10:39;11.50;99.90
25933;DHT22;13731;51.166;4.474;2023-02-19T08:13:25;11.70;1.00
25933;DHT22;13731;51.166;4.474;2023-02-19T08:15:54;11.40;99.90
25933;DHT22;13731;51.166;4.474;2023-02-19T08:18:23;11.40;99.90
25933;DHT22;13731;51.166;4.474;2023-02-19T08:20:49;11.50;99.90
25933;DHT22;13731;51.166;4.474;2023-02-19T08:23:16;11.40;99.90
25933;DHT22;13731;51.166;4.474;2023-02-19T08:25:42;11.40;99.90
25933;DHT22;13731;51.166;4.474;2023-02-19T08:28:10;11.40;99.90
25933;DHT22;13731;51.166;4.474;2023-02-19T08:30:37;11.70;1.00
25933;DHT22;13731;51.166;4.474;2023-02-19T08:33:04;11.60;1.00
25933;DHT22;13731;51.166;4.474;2023-02-19T08:35:32;11.50;89.60
25933;DHT22;13731;51.166;4.474;2023-02-19T08:38:00;11.40;99.90
25933;DHT22;13731;51.166;4.474;2023-02-19T08:40:25;11.40;1.00
25933;DHT22;13731;51.166;4.474;2023-02-19T08:42:52;11.50;1.00
25933;DHT22;13731;51.166;4.474;2023-02-19T08:45:18;11.30;22.10
25933;DHT22;13731;51.166;4.474;2023-02-19T08:47:44;11.30;99.90
25933;DHT22;13731;51.166;4.474;2023-02-19T08:50:11;11.50;1.00
25933;DHT22;13731;51.166;4.474;2023-02-19T08:52:37;11.40;1.00
25933;DHT22;13731;51.166;4.474;2023-02-19T08:55:04;11.50;1.00
25933;DHT22;13731;51.166;4.474;2023-02-19T08:57:30;11.60;99.90
25933;DHT22;13731;51.166;4.474;2023-02-19T08:59:56;11.80;99.90
25933;DHT22;13731;51.166;4.474;2023-02-19T09:02:25;11.70;99.90
25933;DHT22;13731;51.166;4.474;2023-02-19T09:04:51;11.70;80.50
25933;DHT22;13731;51.166;4.474;2023-02-19T09:07:18;11.70;1.00
25933;DHT22;13731;51.166;4.474;2023-02-19T09:09:44;11.70;1.00
25933;DHT22;13731;51.166;4.474;2023-02-19T09:12:11;11.80;1.00
25933;DHT22;13731;51.166;4.474;2023-02-19T09:14:37;11.80;34.90
25933;DHT22;13731;51.166;4.474;2023-02-19T09:17:05;11.90;1.00
25933;DHT22;13731;51.166;4.474;2023-02-19T09:19:32;11.70;1.00
25933;DHT22;13731;51.166;4.474;2023-02-19T09:21:58;11.60;99.90
25933;DHT22;13731;51.166;4.474;2023-02-19T09:24:24;11.70;1.00
25933;DHT22;13731;51.166;4.474;2023-02-19T09:26:53;11.70;1.00
25933;DHT22;13731;51.166;4.474;2023-02-19T09:29:21;11.70;21.70
25933;DHT22;13731;51.166;4.474;2023-02-19T09:31:48;11.60;22.70
25933;DHT22;13731;51.166;4.474;2023-02-19T09:34:14;11.80;1.00
25933;DHT22;13731;51.166;4.474;2023-02-19T09:36:40;12.10;99.90
25933;DHT22;13731;51.166;4.474;2023-02-19T09:39:07;12.20;92.40
25933;DHT22;13731;51.166;4.474;2023-02-19T09:44:04;12.20;99.90
25933;DHT22;13731;51.166;4.474;2023-02-19T09:46:37;12.30;99.90
25933;DHT22;13731;51.166;4.474;2023-02-19T09:49:18;12.50;1.00
25933;DHT22;13731;51.166;4.474;2023-02-19T09:51:55;12.50;1.00
25933;DHT22;13731;51.166;4.474;2023-02-19T09:54:27;12.50;1.00
25933;DHT22;13731;51.166;4.474;2023-02-19T09:56:55;12.40;1.00
25933;DHT22;13731;51.166;4.474;2023-02-19T09:59:36;12.60;1.00
25933;DHT22;13731;51.166;4.474;2023-02-19T10:02:22;12.60;1.00
25933;DHT22;13731;51.166;4.474;2023-02-19T10:04:49;12.60;1.00
25933;DHT22;13731;51.166;4.474;2023-02-19T10:07:19;12.40;1.00
25933;DHT22;13731;51.166;4.474;2023-02-19T10:12:26;12.20;98.30
25933;DHT22;13731;51.166;4.474;2023-02-19T10:17:37;12.00;99.90
25933;DHT22;13731;51.166;4.474;2023-02-19T10:20:04;11.90;99.90
25933;DHT22;13731;51.166;4.474;2023-02-19T10:22:31;12.00;99.90
25933;DHT22;13731;51.166;4.474;2023-02-19T10:24:58;12.00;99.90
25933;DHT22;13731;51.166;4.474;2023-02-19T10:27:28;12.00;99.90
25933;DHT22;13731;51.166;4.474;2023-02-19T10:29:56;11.90;99.90
25933;DHT22;13731;51.166;4.474;2023-02-19T10:32:24;12.00;99.90
25933;DHT22;13731;51.166;4.474;2023-02-19T10:37:45;12.00;99.90
25933;DHT22;13731;51.166;4.474;2023-02-19T10:40:17;12.10;99.90
25933;DHT22;13731;51.166;4.474;2023-02-19T10:42:57;12.00;99.90
25933;DHT22;13731;51.166;4.474;2023-02-19T10:45:38;11.90;99.90
25933;DHT22;13731;51.166;4.474;2023-02-19T10:48:05;12.10;99.90
25933;DHT22;13731;51.166;4.474;2023-02-19T10:50:36;12.10;99.90
25933;DHT22;13731;51.166;4.474;2023-02-19T10:53:20;12.10;99.90
25933;DHT22;13731;51.166;4.474;2023-02-19T10:56:07;11.90;99.90
25933;DHT22;13731;51.166;4.474;2023-02-19T10:58:33;12.00;99.90
25933;DHT22;13731;51.166;4.474;2023-02-19T11:01:13;12.00;99.90
25933;DHT22;13731;51.166;4.474;2023-02-19T11:03:40;12.00;1.00
25933;DHT22;13731;51.166;4.474;2023-02-19T11:06:08;12.30;99.90
25933;DHT22;13731;51.166;4.474;2023-02-19T11:08:58;12.40;54.70
25933;DHT22;13731;51.166;4.474;2023-02-19T11:11:33;12.30;99.90
25933;DHT22;13731;51.166;4.474;2023-02-19T11:14:03;12.40;99.90
25933;DHT22;13731;51.166;4.474;2023-02-19T11:16:44;12.50;1.00
25933;DHT22;13731;51.166;4.474;2023-02-19T11:21:58;12.10;1.00
25933;DHT22;13731;51.166;4.474;2023-02-19T11:24:34;11.80;99.90
25933;DHT22;13731;51.166;4.474;2023-02-19T11:27:04;11.90;74.60
25933;DHT22;13731;51.166;4.474;2023-02-19T11:29:31;12.00;1.00
25933;DHT22;13731;51.166;4.474;2023-02-19T11:34:45;12.10;1.00
25933;DHT22;13731;51.166;4.474;2023-02-19T11:37:16;12.20;99.90
25933;DHT22;13731;51.166;4.474;2023-02-19T11:39:45;12.20;99.90
25933;DHT22;13731;51.166;4.474;2023-02-19T11:45:24;12.10;99.90
25933;DHT22;13731;51.166;4.474;2023-02-19T11:48:11;12.00;1.00
25933;DHT22;13731;51.166;4.474;2023-02-19T11:51:02;12.00;99.90
25933;DHT22;13731;51.166;4.474;2023-02-19T11:53:31;11.80;1.00
25933;DHT22;13731;51.166;4.474;2023-02-19T11:56:17;12.00;1.00
25933;DHT22;13731;51.166;4.474;2023-02-19T12:04:47;12.50;30.70
25933;DHT22;13731;51.166;4.474;2023-02-19T12:28:50;12.70;1.00
25933;DHT22;13731;51.166;4.474;2023-02-19T12:40:19;12.10;99.90
25933;DHT22;13731;51.166;4.474;2023-02-19T12:43:22;12.30;99.90
25933;DHT22;13731;51.166;4.474;2023-02-19T12:46:05;12.10;99.90
25933;DHT22;13731;51.166;4.474;2023-02-19T12:48:41;11.90;1.00
25933;DHT22;13731;51.166;4.474;2023-02-19T12:51:19;12.00;1.00
25933;DHT22;13731;51.166;4.474;2023-02-19T12:54:09;12.00;99.90
25933;DHT22;13731;51.166;4.474;2023-02-19T12:56:47;12.00;99.90
25933;DHT22;13731;51.166;4.474;2023-02-19T13:04:48;11.80;99.90
25933;DHT22;13731;51.166;4.474;2023-02-19T13:07:38;11.70;99.90
25933;DHT22;13731;51.166;4.474;2023-02-19T13:10:24;11.40;99.90
25933;DHT22;13731;51.166;4.474;2023-02-19T13:12:52;11.40;99.90
25933;DHT22;13731;51.166;4.474;2023-02-19T13:15:45;11.40;99.90
25933;DHT22;13731;51.166;4.474;2023-02-19T13:18:18;11.50;99.90
25933;DHT22;13731;51.166;4.474;2023-02-19T13:20:45;11.50;99.90
25933;DHT22;13731;51.166;4.474;2023-02-19T13:23:26;11.50;99.90
25933;DHT22;13731;51.166;4.474;2023-02-19T13:26:22;11.70;1.00
25933;DHT22;13731;51.166;4.474;2023-02-19T13:37:21;11.20;99.90
25933;DHT22;13731;51.166;4.474;2023-02-19T13:39:51;11.30;47.70
25933;DHT22;13731;51.166;4.474;2023-02-19T13:42:26;11.20;99.90
25933;DHT22;13731;51.166;4.474;2023-02-19T13:44:53;11.00;99.90
25933;DHT22;13731;51.166;4.474;2023-02-19T13:47:49;10.80;99.90
25933;DHT22;13731;51.166;4.474;2023-02-19T13:50:24;10.90;99.90
25933;DHT22;13731;51.166;4.474;2023-02-19T13:52:52;10.90;1.00
25933;DHT22;13731;51.166;4.474;2023-02-19T14:06:02;11.00;99.90
25933;DHT22;13731;51.166;4.474;2023-02-19T14:11:14;11.10;1.00
25933;DHT22;13731;51.166;4.474;2023-02-19T14:19:00;11.00;1.00
25933;DHT22;13731;51.166;4.474;2023-02-19T14:24:00;11.10;1.00
25933;DHT22;13731;51.166;4.474;2023-02-19T14:26:30;11.30;1.00
25933;DHT22;13731;51.166;4.474;2023-02-19T14:28:57;11.10;1.00
25933;DHT22;13731;51.166;4.474;2023-02-19T14:34:03;11.30;1.00
25933;DHT22;13731;51.166;4.474;2023-02-19T14:39:30;11.40;1.00
25933;DHT22;13731;51.166;4.474;2023-02-19T14:41:59;11.30;1.00
25933;DHT22;13731;51.166;4.474;2023-02-19T14:44:33;11.50;1.00
25933;DHT22;13731;51.166;4.474;2023-02-19T14:47:08;11.60;1.00
25933;DHT22;13731;51.166;4.474;2023-02-19T14:49:48;11.50;1.00
25933;DHT22;13731;51.166;4.474;2023-02-19T14:52:42;11.40;1.00
25933;DHT22;13731;51.166;4.474;2023-02-19T14:55:24;11.30;99.90
25933;DHT22;13731;51.166;4.474;2023-02-19T14:57:53;11.20;8.60
25933;DHT22;13731;51.166;4.474;2023-02-19T15:00:28;11.30;1.00
25933;DHT22;13731;51.166;4.474;2023-02-19T15:02:55;11.20;1.00
25933;DHT22;13731;51.166;4.474;2023-02-19T15:05:31;11.40;1.00
25933;DHT22;13731;51.166;4.474;2023-02-19T15:08:00;11.70;99.90
25933;DHT22;13731;51.166;4.474;2023-02-19T15:10:29;11.50;99.90
25933;DHT22;13731;51.166;4.474;2023-02-19T15:13:02;11.50;99.90
25933;DHT22;13731;51.166;4.474;2023-02-19T15:15:35;11.50;99.90
25933;DHT22;13731;51.166;4.474;2023-02-19T15:18:02;11.50;99.90
25933;DHT22;13731;51.166;4.474;2023-02-19T15:20:33;11.40;99.90
25933;DHT22;13731;51.166;4.474;2023-02-19T15:23:00;11.40;99.90
25933;DHT22;13731;51.166;4.474;2023-02-19T15:25:33;11.50;99.90
25933;DHT22;13731;51.166;4.474;2023-02-19T15:28:31;11.50;99.90
25933;DHT22;13731;51.166;4.474;2023-02-19T15:33:25;11.20;1.00
25933;DHT22;13731;51.166;4.474;2023-02-19T15:35:54;11.20;1.00
25933;DHT22;13731;51.166;4.474;2023-02-19T15:38:21;11.10;1.00
25933;DHT22;13731;51.166;4.474;2023-02-19T15:40:48;10.90;1.00
25933;DHT22;13731;51.166;4.474;2023-02-19T15:43:35;10.90;1.00
25933;DHT22;13731;51.166;4.474;2023-02-19T15:46:19;10.80;1.00
25933;DHT22;13731;51.166;4.474;2023-02-19T15:48:55;10.50;23.30
25933;DHT22;13731;51.166;4.474;2023-02-19T15:51:33;10.60;99.90
25933;DHT22;13731;51.166;4.474;2023-02-19T15:54:11;10.40;99.90
25933;DHT22;13731;51.166;4.474;2023-02-19T15:56:41;10.20;1.00
25933;DHT22;13731;51.166;4.474;2023-02-19T15:59:17;10.30;1.00
25933;DHT22;13731;51.166;4.474;2023-02-19T16:01:45;10.50;99.90
25933;DHT22;13731;51.166;4.474;2023-02-19T16:04:15;10.60;99.90
25933;DHT22;13731;51.166;4.474;2023-02-19T16:06:52;10.50;99.90
25933;DHT22;13731;51.166;4.474;2023-02-19T16:09:44;10.60;99.90
25933;DHT22;13731;51.166;4.474;2023-02-19T16:12:23;10.50;99.90
25933;DHT22;13731;51.166;4.474;2023-02-19T16:14:49;10.60;99.90
25933;DHT22;13731;51.166;4.474;2023-02-19T16:17:18;10.50;99.90
25933;DHT22;13731;51.166;4.474;2023-02-19T16:19:56;10.30;1.00
25933;DHT22;13731;51.166;4.474;2023-02-19T16:22:25;10.40;1.00
25933;DHT22;13731;51.166;4.474;2023-02-19T16:24:56;10.30;42.30
25933;DHT22;13731;51.166;4.474;2023-02-19T16:30:21;10.30;99.90
25933;DHT22;13731;51.166;4.474;2023-02-19T16:35:56;10.20;99.90
25933;DHT22;13731;51.166;4.474;2023-02-19T16:38:22;10.30;99.90
25933;DHT22;13731;51.166;4.474;2023-02-19T16:43:25;10.10;1.00
25933;DHT22;13731;51.166;4.474;2023-02-19T16:45:52;10.10;1.00
25933;DHT22;13731;51.166;4.474;2023-02-19T16:48:20;10.10;1.00
25933;DHT22;13731;51.166;4.474;2023-02-19T16:50:46;10.20;1.00
25933;DHT22;13731;51.166;4.474;2023-02-19T16:53:18;10.00;1.00
25933;DHT22;13731;51.166;4.474;2023-02-19T16:55:45;10.00;99.90
25933;DHT22;13731;51.166;4.474;2023-02-19T16:58:11;10.10;1.00
25933;DHT22;13731;51.166;4.474;2023-02-19T17:00:37;10.10;1.00
25933;DHT22;13731;51.166;4.474;2023-02-19T17:03:09;10.00;36.10
25933;DHT22;13731;51.166;4.474;2023-02-19T17:05:37;10.10;1.00
25933;DHT22;13731;51.166;4.474;2023-02-19T17:10:46;9.70;1.00
25933;DHT22;13731;51.166;4.474;2023-02-19T17:13:12;9.80;99.90
25933;DHT22;13731;51.166;4.474;2023-02-19T17:15:38;9.60;1.00
25933;DHT22;13731;51.166;4.474;2023-02-19T17:18:04;9.50;1.00
25933;DHT22;13731;51.166;4.474;2023-02-19T17:20:30;9.50;97.80
25933;DHT22;13731;51.166;4.474;2023-02-19T17:22:58;9.70;1.00
25933;DHT22;13731;51.166;4.474;2023-02-19T17:25:24;9.50;1.00
25933;DHT22;13731;51.166;4.474;2023-02-19T17:27:50;9.40;99.90
25933;DHT22;13731;51.166;4.474;2023-02-19T17:30:26;9.40;99.90
25933;DHT22;13731;51.166;4.474;2023-02-19T17:32:53;9.30;99.90
25933;DHT22;13731;51.166;4.474;2023-02-19T17:35:19;9.30;1.00
25933;DHT22;13731;51.166;4.474;2023-02-19T17:37:45;9.30;1.00
25933;DHT22;13731;51.166;4.474;2023-02-19T17:40:27;9.20;1.00
25933;DHT22;13731;51.166;4.474;2023-02-19T17:42:53;9.10;99.90
25933;DHT22;13731;51.166;4.474;2023-02-19T17:45:19;9.10;99.90
25933;DHT22;13731;51.166;4.474;2023-02-19T17:47:46;8.90;1.00
25933;DHT22;13731;51.166;4.474;2023-02-19T17:50:15;8.80;1.00
25933;DHT22;13731;51.166;4.474;2023-02-19T17:52:41;9.00;1.00
25933;DHT22;13731;51.166;4.474;2023-02-19T17:55:08;8.90;1.00
25933;DHT22;13731;51.166;4.474;2023-02-19T17:57:34;8.90;1.00
25933;DHT22;13731;51.166;4.474;2023-02-19T18:00:00;8.80;99.90
25933;DHT22;13731;51.166;4.474;2023-02-19T18:02:26;8.80;99.90
25933;DHT22;13731;51.166;4.474;2023-02-19T18:04:52;8.90;99.90
25933;DHT22;13731;51.166;4.474;2023-02-19T18:07:17;8.70;1.00
25933;DHT22;13731;51.166;4.474;2023-02-19T18:09:43;8.60;33.70
25933;DHT22;13731;51.166;4.474;2023-02-19T18:12:09;8.60;1.00
25933;DHT22;13731;51.166;4.474;2023-02-19T18:14:35;8.50;99.90
25933;DHT22;13731;51.166;4.474;2023-02-19T18:17:01;8.50;99.90
25933;DHT22;13731;51.166;4.474;2023-02-19T18:19:27;8.40;99.90